Time;durP1;ratioP1;P1;durP2;ratioP2;P2;SDS_P1;SDS_P2;PMS_P1;PMS_P2;Temp;Humidity;BMP_temperature;BMP_pressure;BME280_temperature;BME280_humidity;BME280_pressure;Samples;Min_cycle;Max_cycle;Signal;HPM_P1;HPM_P2
2021/10/14 03:43:28;;;;;;;4.45;0.90;;;21.40;48.60;;;;;;4440014;23;20441;-63
2021/10/14 03:45:53;;;;;;;9.52;1.02;;;21.40;47.80;;;;;;4973203;28;20400;-59
2021/10/14 03:48:19;;;;;;;8.37;0.83;;;21.50;48.70;;;;;;4975404;28;20490;-66
2021/10/14 03:50:46;;;;;;;6.20;1.00;;;21.50;48.70;;;;;;4974932;28;20514;-60
2021/10/14 03:53:12;;;;;;;4.00;0.80;;;21.50;49.60;;;;;;4975383;28;20392;-59
2021/10/14 03:55:38;;;;;;;5.68;0.90;;;21.60;49.80;;;;;;4975312;28;20399;-60
2021/10/14 03:58:04;;;;;;;8.45;1.00;;;21.60;49.70;;;;;;4957699;28;20483;-68
2021/10/14 04:00:30;;;;;;;6.90;1.00;;;21.60;49.40;;;;;;4975236;28;20400;-61
2021/10/14 04:02:55;;;;;;;4.90;0.80;;;21.60;48.50;;;;;;4974888;28;20946;-64
2021/10/14 04:05:21;;;;;;;6.60;0.83;;;21.60;49.20;;;;;;4975277;28;20491;-59
2021/10/14 04:07:47;;;;;;;9.25;1.00;;;21.60;49.30;;;;;;4975106;28;20408;-61
2021/10/14 04:10:14;;;;;;;6.80;1.17;;;21.60;49.80;;;;;;4974759;28;20423;-59
2021/10/14 04:12:40;;;;;;;8.38;1.08;;;21.60;49.60;;;;;;4974272;28;20400;-59
2021/10/14 04:15:07;;;;;;;4.63;0.90;;;21.70;49.60;;;;;;4990465;28;20959;-58
2021/10/14 04:17:32;;;;;;;5.57;0.85;;;21.70;48.50;;;;;;4994404;28;20422;-66
2021/10/14 04:19:58;;;;;;;4.57;0.90;;;21.60;48.50;;;;;;4994637;28;20485;-59
2021/10/14 04:22:24;;;;;;;4.35;1.30;;;21.60;48.40;;;;;;4994144;28;20401;-60
2021/10/14 04:24:50;;;;;;;4.00;1.00;;;21.60;49.10;;;;;;4994130;28;20735;-63
2021/10/14 04:27:16;;;;;;;3.63;0.90;;;21.60;49.60;;;;;;4982497;28;20391;-59
2021/10/14 04:29:41;;;;;;;3.50;0.80;;;21.70;49.00;;;;;;4974612;28;20412;-59
2021/10/14 04:32:09;;;;;;;3.93;0.80;;;21.70;48.00;;;;;;4971198;28;20406;-60
2021/10/14 04:34:36;;;;;;;2.05;0.90;;;21.60;47.00;;;;;;4974710;28;20446;-59
2021/10/14 04:37:03;;;;;;;3.70;0.85;;;21.50;47.00;;;;;;4974068;28;20803;-59
2021/10/14 04:39:28;;;;;;;2.13;0.73;;;21.50;47.50;;;;;;4984642;28;20440;-61
2021/10/14 04:41:54;;;;;;;3.53;0.77;;;21.50;47.60;;;;;;4993364;28;20415;-61
2021/10/14 04:44:20;;;;;;;3.50;1.00;;;21.60;47.60;;;;;;4992510;28;20410;-59
2021/10/14 04:46:45;;;;;;;2.47;0.85;;;21.50;46.50;;;;;;4989965;28;20404;-60
2021/10/14 04:49:11;;;;;;;2.70;0.90;;;21.50;46.70;;;;;;4986939;28;20429;-60
2021/10/14 04:51:37;;;;;;;3.10;0.93;;;21.50;47.10;;;;;;4993976;28;20387;-61
2021/10/14 04:54:02;;;;;;;3.60;0.83;;;21.50;47.10;;;;;;4993771;28;20779;-60
2021/10/14 04:56:28;;;;;;;2.75;0.65;;;21.50;47.20;;;;;;4993530;28;20473;-60
2021/10/14 04:58:54;;;;;;;2.83;0.70;;;21.50;47.40;;;;;;4992534;28;20406;-59
2021/10/14 05:01:19;;;;;;;3.58;0.85;;;21.50;47.30;;;;;;4992923;28;20382;-59
2021/10/14 05:03:45;;;;;;;3.80;0.90;;;21.50;46.70;;;;;;4976074;28;20406;-67
2021/10/14 05:06:12;;;;;;;3.25;0.80;;;21.40;46.80;;;;;;4989057;28;20392;-62
2021/10/14 05:08:37;;;;;;;3.22;0.70;;;21.40;47.00;;;;;;4974050;28;20737;-59
2021/10/14 05:11:08;;;;;;;2.85;0.93;;;21.30;47.20;;;;;;4973492;28;20462;-60
2021/10/14 05:13:33;;;;;;;2.60;0.80;;;21.40;47.00;;;;;;4973770;28;20761;-59
2021/10/14 05:15:59;;;;;;;2.97;0.90;;;21.40;46.90;;;;;;4956367;28;20423;-62
2021/10/14 05:18:25;;;;;;;2.83;0.90;;;21.40;46.70;;;;;;4973313;28;20421;-59
2021/10/14 05:20:50;;;;;;;3.73;0.80;;;21.30;47.00;;;;;;4973319;28;20903;-60
2021/10/14 05:23:16;;;;;;;4.18;1.00;;;21.30;47.00;;;;;;4973720;28;20392;-60
2021/10/14 05:25:41;;;;;;;2.93;0.80;;;21.30;47.20;;;;;;4973632;28;20392;-61
2021/10/14 05:28:07;;;;;;;1.92;0.70;;;21.30;47.20;;;;;;4973446;28;20436;-60
2021/10/14 05:30:33;;;;;;;4.80;0.80;;;21.30;47.20;;;;;;4973296;28;20452;-61
2021/10/14 05:32:58;;;;;;;2.97;0.80;;;21.30;47.40;;;;;;4973217;28;20807;-64
2021/10/14 05:35:24;;;;;;;2.60;1.00;;;21.30;47.30;;;;;;4972075;28;20410;-62
2021/10/14 05:37:49;;;;;;;2.40;1.00;;;21.20;47.30;;;;;;4971984;28;20753;-61
2021/10/14 05:40:15;;;;;;;2.95;1.15;;;21.20;47.20;;;;;;4973422;28;20893;-60
2021/10/14 05:42:41;;;;;;;2.57;1.03;;;21.20;47.30;;;;;;4973379;28;20396;-61
2021/10/14 05:45:07;;;;;;;3.03;1.00;;;21.30;47.20;;;;;;4972439;28;20420;-60
2021/10/14 05:47:33;;;;;;;2.20;0.82;;;21.20;47.20;;;;;;4973372;28;20391;-59
2021/10/14 05:49:59;;;;;;;2.45;0.70;;;21.20;46.80;;;;;;4973168;28;20404;-60
2021/10/14 05:52:25;;;;;;;1.70;0.90;;;21.20;47.30;;;;;;4973234;28;20792;-63
2021/10/14 05:54:51;;;;;;;1.37;0.60;;;21.10;46.80;;;;;;4972547;28;20459;-62
2021/10/14 05:57:16;;;;;;;2.35;0.90;;;21.20;47.30;;;;;;4955711;28;20454;-63
2021/10/14 05:59:42;;;;;;;1.70;0.80;;;21.20;47.10;;;;;;4972957;28;20868;-63
2021/10/14 06:02:07;;;;;;;2.08;1.00;;;21.20;46.90;;;;;;4973057;28;20400;-60
2021/10/14 06:04:33;;;;;;;2.70;0.90;;;21.20;46.80;;;;;;4972960;28;20445;-64
2021/10/14 06:06:59;;;;;;;2.85;1.00;;;21.10;46.80;;;;;;4972376;28;20822;-63
2021/10/14 06:09:24;;;;;;;2.30;0.87;;;21.10;46.80;;;;;;4972620;28;21007;-67
2021/10/14 06:11:50;;;;;;;3.67;1.08;;;21.20;47.30;;;;;;4972812;28;20483;-65
2021/10/14 06:14:16;;;;;;;5.00;1.10;;;21.20;47.10;;;;;;4972712;28;20487;-65
2021/10/14 06:16:42;;;;;;;3.33;0.90;;;21.20;47.10;;;;;;4972852;28;20470;-63
2021/10/14 06:19:08;;;;;;;3.33;0.90;;;21.20;47.10;;;;;;4972360;28;20408;-63
2021/10/14 06:21:34;;;;;;;3.05;1.10;;;21.10;47.10;;;;;;4972832;28;20396;-64
2021/10/14 06:24:00;;;;;;;4.27;0.93;;;21.10;47.20;;;;;;4972824;28;20400;-62
2021/10/14 06:26:25;;;;;;;3.50;1.00;;;21.10;47.30;;;;;;4972673;28;20396;-65
2021/10/14 06:28:51;;;;;;;1.80;0.90;;;21.20;46.90;;;;;;4972314;28;20396;-66
2021/10/14 06:31:17;;;;;;;2.25;0.82;;;21.20;46.80;;;;;;4972789;28;20404;-64
2021/10/14 06:33:42;;;;;;;2.40;0.90;;;21.20;47.00;;;;;;4972685;28;20463;-66
2021/10/14 06:36:08;;;;;;;2.35;0.90;;;21.10;46.70;;;;;;4972642;28;20445;-64
2021/10/14 06:38:34;;;;;;;2.70;0.90;;;21.10;46.60;;;;;;4972737;28;20400;-62
2021/10/14 06:40:59;;;;;;;2.13;0.90;;;21.10;46.90;;;;;;4972256;28;20392;-62
2021/10/14 06:43:25;;;;;;;2.45;0.82;;;21.10;46.80;;;;;;4972428;28;20408;-62
2021/10/14 06:45:51;;;;;;;2.47;0.90;;;21.20;46.70;;;;;;4972695;28;20475;-62
2021/10/14 06:48:16;;;;;;;1.70;0.82;;;21.20;46.80;;;;;;4972492;28;20400;-63
2021/10/14 06:50:42;;;;;;;2.22;0.90;;;21.10;46.60;;;;;;4972615;28;20420;-63
2021/10/14 06:53:11;;;;;;;2.23;0.90;;;21.10;46.70;;;;;;4972039;28;20408;-63
2021/10/14 06:55:38;;;;;;;1.63;1.00;;;21.00;46.80;;;;;;4972508;28;20404;-59
2021/10/14 06:58:04;;;;;;;2.43;0.97;;;21.10;46.80;;;;;;4972473;28;20406;-59
2021/10/14 07:00:30;;;;;;;1.45;0.80;;;21.20;46.60;;;;;;4972497;28;20495;-59
2021/10/14 07:02:55;;;;;;;1.80;0.80;;;21.20;47.30;;;;;;4972049;28;20756;-59
2021/10/14 07:05:21;;;;;;;1.83;0.85;;;21.10;46.50;;;;;;4972392;28;20388;-59
2021/10/14 07:07:46;;;;;;;1.77;0.90;;;21.10;46.60;;;;;;4976223;28;20419;-59
2021/10/14 07:10:13;;;;;;;1.35;0.80;;;21.00;46.40;;;;;;4976111;28;20428;-60
2021/10/14 07:12:40;;;;;;;1.70;0.80;;;21.10;46.70;;;;;;4976318;28;20402;-59
2021/10/14 07:15:07;;;;;;;1.50;0.90;;;21.10;46.50;;;;;;4975187;28;20402;-60
2021/10/14 07:17:33;;;;;;;1.45;0.70;;;21.20;46.60;;;;;;4975500;28;20396;-59
2021/10/14 07:19:59;;;;;;;1.80;1.02;;;21.10;46.30;;;;;;4976135;28;20420;-59
2021/10/14 07:22:25;;;;;;;1.47;0.80;;;21.10;46.50;;;;;;4958603;28;20404;-59
2021/10/14 07:24:50;;;;;;;1.70;0.80;;;21.00;46.30;;;;;;4975799;28;20400;-58
2021/10/14 07:27:16;;;;;;;1.65;0.80;;;21.00;46.50;;;;;;4975600;28;20748;-59
2021/10/14 07:29:42;;;;;;;1.45;0.77;;;21.10;46.30;;;;;;4975878;28;20417;-61
2021/10/14 07:32:08;;;;;;;1.67;0.75;;;21.10;46.30;;;;;;4975798;28;20404;-58
2021/10/14 07:34:35;;;;;;;1.60;0.80;;;21.10;46.30;;;;;;4975860;28;20384;-64
2021/10/14 07:37:01;;;;;;;1.80;0.90;;;21.10;46.50;;;;;;4975301;28;20400;-59
2021/10/14 07:39:26;;;;;;;1.80;0.80;;;21.00;46.20;;;;;;4975611;28;20392;-59
2021/10/14 07:41:52;;;;;;;1.50;0.80;;;21.00;46.20;;;;;;4975777;28;20396;-59
2021/10/14 07:44:18;;;;;;;1.03;0.73;;;21.10;46.30;;;;;;4975388;28;20412;-59
2021/10/14 07:46:45;;;;;;;1.80;0.90;;;21.10;46.20;;;;;;4975713;28;20392;-59
2021/10/14 07:49:12;;;;;;;1.35;0.88;;;21.10;46.40;;;;;;4974935;28;20435;-59
2021/10/14 07:51:38;;;;;;;1.40;1.00;;;21.10;46.40;;;;;;4975638;28;20399;-58
2021/10/14 07:54:05;;;;;;;1.60;0.80;;;21.00;46.30;;;;;;4975436;28;20392;-59
2021/10/14 07:56:31;;;;;;;2.13;0.90;;;21.00;46.30;;;;;;4975516;28;20420;-59
2021/10/14 07:58:57;;;;;;;1.27;0.80;;;21.00;46.20;;;;;;4974778;28;20392;-59
2021/10/14 08:01:22;;;;;;;1.10;0.70;;;21.10;46.20;;;;;;4975274;28;20455;-59
2021/10/14 08:03:48;;;;;;;1.45;0.90;;;21.10;46.40;;;;;;4975324;28;20488;-59
2021/10/14 08:06:15;;;;;;;1.33;0.82;;;21.10;46.10;;;;;;4975196;28;20488;-59
2021/10/14 08:08:40;;;;;;;1.40;0.80;;;21.00;46.20;;;;;;4975212;28;20385;-59
2021/10/14 08:11:07;;;;;;;1.65;0.70;;;21.00;46.50;;;;;;4974644;28;20422;-59
2021/10/14 08:13:33;;;;;;;1.55;0.90;;;21.00;46.40;;;;;;4975118;28;20868;-59
2021/10/14 08:15:59;;;;;;;1.75;0.90;;;21.10;46.20;;;;;;4975048;28;20873;-59
2021/10/14 08:18:24;;;;;;;1.30;0.83;;;21.10;46.20;;;;;;4957589;28;20415;-60
2021/10/14 08:20:53;;;;;;;1.10;0.70;;;21.00;46.40;;;;;;4975108;28;20396;-68
2021/10/14 08:23:19;;;;;;;1.38;0.80;;;21.00;46.20;;;;;;4974691;28;20396;-67
2021/10/14 08:25:45;;;;;;;1.10;0.70;;;21.00;46.20;;;;;;4974945;28;20494;-67
2021/10/14 08:28:10;;;;;;;1.08;0.73;;;21.00;46.10;;;;;;4974865;28;20495;-67
2021/10/14 08:30:36;;;;;;;1.40;0.70;;;21.10;46.00;;;;;;4974787;28;20430;-66
2021/10/14 08:33:02;;;;;;;1.67;0.80;;;21.10;46.10;;;;;;4974331;28;20404;-67
2021/10/14 08:35:35;;;;;;;1.37;0.90;;;21.10;46.10;;;;;;4974675;28;20401;-64
2021/10/14 08:38:00;;;;;;;1.15;0.70;;;21.00;46.00;;;;;;4974940;28;20403;-65
2021/10/14 08:40:26;;;;;;;1.40;0.60;;;20.90;46.80;;;;;;4974659;28;20384;-65
2021/10/14 08:42:52;;;;;;;1.33;0.75;;;21.00;46.30;;;;;;4974626;28;20495;-63
2021/10/14 08:45:18;;;;;;;1.13;0.70;;;21.10;46.20;;;;;;4973420;28;20489;-61
2021/10/14 08:47:43;;;;;;;1.23;0.80;;;21.10;46.00;;;;;;4974019;28;20408;-60
2021/10/14 08:50:10;;;;;;;1.38;0.80;;;21.00;46.20;;;;;;4974040;28;20426;-62
2021/10/14 08:52:36;;;;;;;1.40;0.90;;;21.00;46.00;;;;;;4974412;28;20424;-66
2021/10/14 08:55:02;;;;;;;1.10;0.80;;;21.00;46.10;;;;;;4973824;28;20435;-61
2021/10/14 08:57:28;;;;;;;1.20;0.80;;;21.00;46.00;;;;;;4974261;28;21034;-64
2021/10/14 08:59:54;;;;;;;1.15;0.57;;;21.00;45.90;;;;;;4974306;28;20392;-67
2021/10/14 09:02:20;;;;;;;1.20;0.90;;;21.10;46.70;;;;;;4974079;28;20462;-66
2021/10/14 09:04:48;;;;;;;1.30;0.70;;;21.00;46.20;;;;;;4974275;28;20471;-68
2021/10/14 09:07:15;;;;;;;1.50;0.70;;;21.00;46.00;;;;;;4973634;28;20417;-64
2021/10/14 09:09:42;;;;;;;1.58;0.90;;;21.00;46.10;;;;;;4974097;28;20430;-66
2021/10/14 09:12:10;;;;;;;1.40;0.70;;;20.90;46.00;;;;;;4974115;28;20392;-65
2021/10/14 09:15:03;;;;;;;1.30;0.80;;;21.00;45.90;;;;;;4974035;28;20480;-65
2021/10/14 09:17:37;;;;;;;1.13;0.70;;;21.10;46.20;;;;;;4965756;28;20751;-61
2021/10/14 09:20:22;;;;;;;1.60;0.88;;;21.00;46.00;;;;;;4973959;28;20432;-59
2021/10/14 09:22:58;;;;;;;1.20;0.80;;;21.00;45.80;;;;;;4973902;28;20399;-64
2021/10/14 09:25:36;;;;;;;1.40;0.70;;;21.00;46.20;;;;;;4973873;28;20439;-62
2021/10/14 09:28:07;;;;;;;1.27;0.60;;;21.00;46.00;;;;;;4973825;28;20400;-62
2021/10/14 09:30:46;;;;;;;1.80;0.70;;;21.00;46.00;;;;;;4973350;28;20420;-62
2021/10/14 09:33:42;;;;;;;1.13;0.90;;;21.00;46.00;;;;;;4973275;28;20865;-60
2021/10/14 09:36:40;;;;;;;1.20;0.80;;;21.00;45.80;;;;;;4956295;28;20411;-66
2021/10/14 09:39:07;;;;;;;1.33;0.73;;;21.00;45.80;;;;;;4930301;28;20432;-61
2021/10/14 09:41:41;;;;;;;1.15;0.80;;;20.90;46.00;;;;;;4973655;28;20479;-63
2021/10/14 09:44:13;;;;;;;1.20;0.77;;;21.00;45.90;;;;;;4973276;28;20423;-61
2021/10/14 09:46:40;;;;;;;1.00;0.70;;;21.00;45.80;;;;;;4973564;28;20408;-67
2021/10/14 09:49:11;;;;;;;1.20;0.80;;;21.00;45.80;;;;;;4972839;28;20424;-64
2021/10/14 09:51:39;;;;;;;1.75;0.70;;;21.00;45.90;;;;;;4956025;28;20408;-61
2021/10/14 09:54:04;;;;;;;1.40;0.90;;;21.00;45.80;;;;;;4973277;28;20403;-59
2021/10/14 09:56:30;;;;;;;0.90;0.70;;;20.90;45.90;;;;;;4956000;28;20400;-67
2021/10/14 09:58:59;;;;;;;1.50;0.82;;;21.00;45.80;;;;;;4973255;28;20959;-65
2021/10/14 10:01:24;;;;;;;1.20;0.70;;;21.10;45.90;;;;;;4972300;28;20500;-66
2021/10/14 10:03:52;;;;;;;0.90;0.60;;;21.10;45.80;;;;;;4972819;28;20392;-64
2021/10/14 10:06:24;;;;;;;1.10;0.70;;;21.00;45.90;;;;;;4973002;28;20432;-60
2021/10/14 10:08:52;;;;;;;1.50;0.60;;;21.00;45.90;;;;;;4973221;28;20419;-59
2021/10/14 10:11:20;;;;;;;1.23;0.70;;;21.00;45.90;;;;;;4972349;28;20912;-59
2021/10/14 10:13:52;;;;;;;1.33;0.70;;;21.00;45.90;;;;;;4972988;28;20876;-59
2021/10/14 10:16:26;;;;;;;1.37;0.80;;;21.10;45.70;;;;;;4972963;28;20431;-67
2021/10/14 10:18:56;;;;;;;1.27;0.60;;;21.10;45.80;;;;;;4972991;28;20384;-61
2021/10/14 10:21:31;;;;;;;1.27;0.77;;;21.10;45.80;;;;;;4972499;28;20392;-62
2021/10/14 10:24:00;;;;;;;1.70;0.87;;;21.00;45.80;;;;;;4972822;28;20434;-59
2021/10/14 10:29:02;;;;;;;1.02;0.60;;;21.00;45.70;;;;;;4972567;28;20443;-66
2021/10/14 10:31:55;;;;;;;1.00;0.68;;;21.10;45.60;;;;;;4972766;28;20400;-67
2021/10/14 10:34:42;;;;;;;1.50;0.70;;;21.10;45.80;;;;;;4947433;28;20392;-64
2021/10/14 10:37:33;;;;;;;1.10;0.63;;;21.10;45.50;;;;;;4972252;28;20396;-62
2021/10/14 10:40:19;;;;;;;1.05;0.60;;;21.00;45.80;;;;;;4972801;28;20471;-64
2021/10/14 10:42:50;;;;;;;1.38;0.80;;;21.00;45.70;;;;;;4976603;28;20411;-67
2021/10/14 10:45:22;;;;;;;1.20;0.70;;;21.10;45.50;;;;;;4976134;28;20411;-63
2021/10/14 10:47:59;;;;;;;1.23;0.80;;;21.10;45.60;;;;;;4976649;28;20404;-65
2021/10/14 10:50:34;;;;;;;1.00;0.70;;;21.10;45.70;;;;;;4976568;28;20510;-65
2021/10/14 10:53:08;;;;;;;1.30;0.60;;;21.00;45.60;;;;;;4976415;28;20395;-59
2021/10/14 10:55:42;;;;;;;1.27;0.70;;;21.00;45.70;;;;;;4959158;28;20411;-65
2021/10/14 10:58:12;;;;;;;1.30;0.70;;;21.00;45.50;;;;;;4976471;28;20868;-65
2021/10/14 11:00:43;;;;;;;1.48;0.60;;;21.10;45.60;;;;;;4976543;28;20396;-64
2021/10/14 11:03:15;;;;;;;1.13;0.70;;;21.10;45.50;;;;;;4975346;28;20459;-65
2021/10/14 11:05:51;;;;;;;1.20;0.80;;;21.10;45.70;;;;;;4976461;28;20756;-67
2021/10/14 11:08:21;;;;;;;1.33;0.68;;;21.10;45.60;;;;;;4976273;28;20392;-65
2021/10/14 11:10:52;;;;;;;1.25;0.73;;;21.00;45.70;;;;;;4976317;28;20775;-64
2021/10/14 11:13:18;;;;;;;1.20;0.70;;;21.00;45.50;;;;;;4975797;28;20387;-66
2021/10/14 11:15:52;;;;;;;1.60;0.70;;;21.10;45.50;;;;;;4976210;28;21045;-62
2021/10/14 11:18:20;;;;;;;1.30;0.70;;;21.10;45.30;;;;;;4975610;28;20403;-60
2021/10/14 11:21:00;;;;;;;1.10;0.60;;;21.10;45.60;;;;;;4975701;28;20407;-67
2021/10/14 11:23:28;;;;;;;1.00;0.63;;;21.00;45.60;;;;;;4975489;28;20844;-66
2021/10/14 11:26:05;;;;;;;1.60;0.77;;;21.00;45.80;;;;;;4975913;28;20396;-67
2021/10/14 11:28:48;;;;;;;1.90;0.73;;;21.00;45.50;;;;;;4975962;28;20744;-64
2021/10/14 11:31:33;;;;;;;1.00;0.68;;;21.10;45.50;;;;;;4975355;28;20471;-66
2021/10/14 11:34:22;;;;;;;1.90;0.80;;;21.10;45.40;;;;;;4975926;28;20484;-59
2021/10/14 11:36:52;;;;;;;1.23;0.63;;;21.10;45.70;;;;;;4975892;28;20392;-64
2021/10/14 11:39:20;;;;;;;0.90;0.60;;;21.10;45.30;;;;;;4975284;28;20966;-64
2021/10/14 11:41:53;;;;;;;1.15;0.77;;;21.00;45.70;;;;;;4958202;28;20404;-63
2021/10/14 11:44:19;;;;;;;1.00;0.70;;;21.10;45.60;;;;;;4975405;28;20475;-66
2021/10/14 11:46:46;;;;;;;1.23;0.63;;;21.10;45.40;;;;;;4975620;28;20436;-63
2021/10/14 11:49:11;;;;;;;1.25;0.60;;;21.10;45.30;;;;;;4975051;28;20395;-64
2021/10/14 11:51:37;;;;;;;0.90;0.60;;;21.10;45.60;;;;;;4975148;28;20396;-64
2021/10/14 11:54:12;;;;;;;0.90;0.63;;;21.10;45.60;;;;;;4975523;28;20407;-65
2021/10/14 11:56:48;;;;;;;1.60;0.68;;;21.00;45.50;;;;;;4975498;28;20422;-61
2021/10/14 11:59:17;;;;;;;1.10;0.77;;;21.00;45.30;;;;;;4974953;28;20420;-65
2021/10/14 12:01:47;;;;;;;0.90;0.60;;;21.10;45.30;;;;;;4975370;28;20397;-62
2021/10/14 12:04:17;;;;;;;1.23;0.70;;;21.10;45.30;;;;;;4975069;28;20392;-65
2021/10/14 12:06:44;;;;;;;1.15;0.60;;;21.10;45.50;;;;;;4975281;28;20800;-66
2021/10/14 12:09:12;;;;;;;1.30;0.60;;;21.10;45.70;;;;;;4974588;28;20760;-67
2021/10/14 12:11:38;;;;;;;0.80;0.50;;;21.00;45.40;;;;;;4975084;28;20414;-60
2021/10/14 12:14:04;;;;;;;2.10;0.60;;;21.00;45.30;;;;;;4975118;28;20864;-60
2021/10/14 12:16:32;;;;;;;2.90;0.73;;;21.10;45.80;;;;;;4975051;28;20396;-60
2021/10/14 12:19:17;;;;;;;2.58;1.00;;;21.10;45.50;;;;;;4975102;28;20428;-64
2021/10/14 12:21:45;;;;;;;1.90;1.00;;;21.10;45.50;;;;;;4974923;28;20458;-60
2021/10/14 12:24:25;;;;;;;3.78;0.80;;;21.00;45.90;;;;;;4957449;28;20451;-62
2021/10/14 12:26:55;;;;;;;2.10;0.70;;;21.00;45.90;;;;;;4974982;28;20458;-62
2021/10/14 12:29:34;;;;;;;2.50;0.70;;;21.00;46.30;;;;;;4974063;28;20479;-65
2021/10/14 12:32:07;;;;;;;2.10;0.70;;;21.10;46.20;;;;;;4974872;28;20432;-59
2021/10/14 12:34:46;;;;;;;1.98;0.70;;;21.10;46.00;;;;;;4973959;28;20853;-59
2021/10/14 12:37:14;;;;;;;2.35;0.70;;;21.10;46.20;;;;;;4973832;28;20877;-60
2021/10/14 12:39:40;;;;;;;2.10;0.90;;;21.00;46.10;;;;;;4973483;28;20931;-60
2021/10/14 12:42:08;;;;;;;4.70;1.80;;;21.10;47.80;;;;;;4974293;28;20397;-59
2021/10/14 12:52:39;;;;;;;4.00;1.10;;;21.60;46.70;;;;;;4982232;28;20402;-59
2021/10/14 12:55:06;;;;;;;2.55;0.80;;;21.70;46.50;;;;;;4984385;28;20408;-59
2021/10/14 12:57:32;;;;;;;3.80;1.00;;;21.70;46.30;;;;;;4979265;28;20390;-58
2021/10/14 12:59:58;;;;;;;2.65;1.00;;;21.70;46.30;;;;;;4976480;28;20951;-58
2021/10/14 13:02:24;;;;;;;2.10;0.98;;;21.70;46.10;;;;;;4974230;28;20791;-58
2021/10/14 13:04:49;;;;;;;2.50;1.10;;;21.80;46.20;;;;;;4973384;28;20400;-59
2021/10/14 13:07:15;;;;;;;1.67;0.77;;;21.80;45.90;;;;;;4973486;28;20402;-60
2021/10/14 13:09:40;;;;;;;3.60;0.98;;;21.80;45.70;;;;;;4973974;28;20459;-60
2021/10/14 13:12:08;;;;;;;2.03;0.80;;;21.80;45.90;;;;;;4956448;28;20490;-60
2021/10/14 13:14:37;;;;;;;2.72;0.90;;;21.90;45.70;;;;;;4973993;28;20512;-60
2021/10/14 13:17:04;;;;;;;2.22;0.80;;;22.00;46.10;;;;;;4973894;28;20483;-60
2021/10/14 13:19:29;;;;;;;1.25;0.73;;;22.00;45.60;;;;;;4973342;28;20392;-60
2021/10/14 13:21:55;;;;;;;1.38;0.80;;;22.00;45.70;;;;;;4973788;28;20404;-60
2021/10/14 13:24:21;;;;;;;4.10;0.80;;;22.00;45.50;;;;;;4973677;28;20388;-59
2021/10/14 13:26:46;;;;;;;2.63;0.90;;;22.00;45.50;;;;;;4973680;28;20396;-60
2021/10/14 13:29:12;;;;;;;2.70;0.97;;;22.00;45.40;;;;;;4973314;28;20404;-60
2021/10/14 13:31:38;;;;;;;2.45;1.02;;;22.10;45.30;;;;;;4973685;28;20392;-60
2021/10/14 13:34:04;;;;;;;3.00;0.80;;;22.10;45.20;;;;;;4973593;28;20440;-59
2021/10/14 13:36:30;;;;;;;2.60;1.10;;;22.10;45.20;;;;;;4973424;28;20396;-60
2021/10/14 13:38:57;;;;;;;2.30;0.80;;;22.10;45.10;;;;;;4973515;28;20392;-60
2021/10/14 13:41:26;;;;;;;1.98;1.00;;;22.10;45.00;;;;;;4972901;28;20427;-60
2021/10/14 13:46:26;;;;;;;3.25;1.20;;;22.10;45.00;;;;;;4972969;28;20406;-61
2021/10/14 13:48:51;;;;;;;3.30;1.20;;;22.20;44.90;;;;;;4972568;28;20396;-60
2021/10/14 13:51:17;;;;;;;3.33;1.10;;;22.20;44.70;;;;;;4971864;28;20516;-61
2021/10/14 13:53:44;;;;;;;4.22;1.48;;;22.20;44.70;;;;;;4971374;28;20424;-60
2021/10/14 13:56:10;;;;;;;3.90;1.47;;;22.20;44.60;;;;;;4973221;28;20796;-60
2021/10/14 13:58:36;;;;;;;3.92;1.45;;;22.20;44.50;;;;;;4972955;28;20400;-60
2021/10/14 14:01:03;;;;;;;3.35;1.48;;;22.20;44.60;;;;;;4972447;28;20872;-61
2021/10/14 14:03:29;;;;;;;4.53;1.55;;;22.30;44.60;;;;;;4972227;28;20393;-61
2021/10/14 14:05:54;;;;;;;3.45;1.70;;;22.30;44.40;;;;;;4973043;28;20495;-60
2021/10/14 14:08:20;;;;;;;3.30;1.27;;;22.20;44.60;;;;;;4973119;28;20427;-59
2021/10/14 14:10:47;;;;;;;2.95;1.20;;;22.30;44.70;;;;;;4972978;28;20420;-63
2021/10/14 14:13:13;;;;;;;5.03;1.40;;;22.30;44.80;;;;;;4972529;28;20443;-61
2021/10/14 14:15:41;;;;;;;2.92;1.10;;;22.30;44.90;;;;;;4972157;28;20483;-60
2021/10/14 14:18:08;;;;;;;3.30;0.98;;;22.30;44.70;;;;;;4972597;28;20415;-63
2021/10/14 14:20:38;;;;;;;3.38;1.10;;;22.30;44.60;;;;;;4972861;28;20404;-59
2021/10/14 14:23:05;;;;;;;4.15;1.10;;;22.30;44.60;;;;;;4972752;28;21199;-60
2021/10/14 14:25:31;;;;;;;2.80;1.13;;;22.30;44.40;;;;;;4972402;28;20412;-60
2021/10/14 14:27:58;;;;;;;4.22;1.10;;;22.40;44.80;;;;;;4972864;28;20519;-59
2021/10/14 14:30:23;;;;;;;6.25;1.20;;;22.40;44.60;;;;;;4972649;28;20888;-59
2021/10/14 14:32:49;;;;;;;4.40;1.10;;;22.30;44.80;;;;;;4972797;28;20404;-60
2021/10/14 14:35:15;;;;;;;5.43;1.20;;;22.40;44.90;;;;;;4972094;28;20392;-59
2021/10/14 14:37:41;;;;;;;3.38;0.90;;;22.40;44.70;;;;;;4972549;28;20388;-67
2021/10/14 14:40:08;;;;;;;4.57;0.97;;;22.40;44.30;;;;;;4972541;28;20415;-68
2021/10/14 14:42:34;;;;;;;4.20;1.02;;;22.40;44.40;;;;;;4972582;28;20415;-60
2021/10/14 14:45:00;;;;;;;4.53;1.20;;;22.50;44.30;;;;;;4972483;28;20413;-60
2021/10/14 14:47:26;;;;;;;4.85;1.10;;;22.60;44.30;;;;;;4972014;28;20825;-60
2021/10/14 14:50:00;;;;;;;5.25;1.02;;;22.60;44.20;;;;;;4972493;28;20430;-60
2021/10/14 14:52:26;;;;;;;3.47;0.98;;;22.70;44.20;;;;;;4972474;28;20428;-59
2021/10/14 14:54:52;;;;;;;4.85;1.02;;;22.80;44.10;;;;;;4972360;28;20917;-60
2021/10/14 14:57:18;;;;;;;2.88;1.20;;;22.80;44.10;;;;;;4971995;28;20491;-59
2021/10/14 14:59:44;;;;;;;3.70;1.10;;;22.90;44.10;;;;;;4972603;28;20467;-60
2021/10/14 15:02:12;;;;;;;2.33;1.00;;;22.90;44.10;;;;;;4972465;28;20428;-60
2021/10/14 15:04:38;;;;;;;5.30;1.10;;;23.00;43.90;;;;;;4972419;28;20397;-60
2021/10/14 15:07:04;;;;;;;3.05;0.90;;;23.00;44.00;;;;;;4971618;28;20553;-60
2021/10/14 15:09:29;;;;;;;2.80;1.20;;;23.00;43.90;;;;;;4971506;28;22352;-60
2021/10/14 15:11:55;;;;;;;3.33;1.40;;;23.10;43.90;;;;;;4971962;28;20412;-60
2021/10/14 15:14:20;;;;;;;3.70;1.30;;;23.10;43.70;;;;;;4972153;28;20824;-60
2021/10/14 15:16:46;;;;;;;2.72;1.30;;;23.20;43.80;;;;;;4971897;28;20400;-59
2021/10/14 15:19:12;;;;;;;5.07;1.30;;;23.20;43.60;;;;;;4954936;28;20403;-59
2021/10/14 15:21:37;;;;;;;1.77;1.10;;;23.20;43.70;;;;;;4971155;28;20752;-60
2021/10/14 15:24:03;;;;;;;3.55;1.50;;;23.20;43.60;;;;;;4972071;28;20396;-60
2021/10/14 15:26:29;;;;;;;4.53;1.15;;;23.30;43.60;;;;;;4955117;28;20555;-60
2021/10/14 15:28:55;;;;;;;3.57;1.37;;;23.30;43.60;;;;;;4975812;28;20399;-60
2021/10/14 15:31:21;;;;;;;2.65;1.10;;;23.30;43.50;;;;;;4975316;28;20419;-60
2021/10/14 15:33:48;;;;;;;5.65;1.00;;;23.30;43.50;;;;;;4975905;28;20872;-61
2021/10/14 15:36:14;;;;;;;3.08;1.10;;;23.20;43.70;;;;;;4975321;28;20418;-60
2021/10/14 15:38:42;;;;;;;13.43;1.40;;;23.30;43.90;;;;;;4975824;28;20390;-60
2021/10/14 15:41:11;;;;;;;6.85;1.20;;;23.30;43.70;;;;;;4975460;28;20888;-60
2021/10/14 15:43:40;;;;;;;2.63;1.17;;;23.40;44.10;;;;;;4974795;28;20423;-60
2021/10/14 15:46:07;;;;;;;3.10;1.10;;;23.40;43.40;;;;;;4975685;28;20440;-60
2021/10/14 15:48:32;;;;;;;3.30;1.27;;;23.40;43.80;;;;;;4975441;28;20403;-60
2021/10/14 15:50:58;;;;;;;5.13;1.48;;;23.40;43.80;;;;;;4975512;28;20416;-60
2021/10/14 15:53:24;;;;;;;3.87;1.40;;;23.50;43.70;;;;;;4975053;28;20491;-61
2021/10/14 15:55:50;;;;;;;4.55;1.23;;;23.50;43.50;;;;;;4975229;28;20928;-62
2021/10/14 15:58:21;;;;;;;6.20;1.50;;;23.50;43.70;;;;;;4975225;28;20397;-68
2021/10/14 16:00:47;;;;;;;7.65;1.58;;;23.50;44.30;;;;;;4975327;28;20397;-67
2021/10/14 16:03:13;;;;;;;6.15;1.40;;;23.50;44.20;;;;;;4976306;28;20395;-60
2021/10/14 16:05:40;;;;;;;7.60;1.67;;;23.60;44.60;;;;;;4974753;28;20411;-60
2021/10/14 16:08:10;;;;;;;7.35;1.55;;;23.60;44.70;;;;;;4974799;28;20456;-60
2021/10/14 16:10:36;;;;;;;4.75;1.40;;;23.60;45.20;;;;;;4976961;28;20427;-61
2021/10/14 16:13:02;;;;;;;3.95;1.35;;;23.70;45.00;;;;;;4985483;28;20445;-60
2021/10/14 16:15:28;;;;;;;3.47;1.50;;;23.70;45.30;;;;;;4992313;28;20406;-60
2021/10/14 16:17:56;;;;;;;8.32;1.70;;;23.80;44.00;;;;;;4992599;28;20394;-60
2021/10/14 16:20:22;;;;;;;6.07;1.50;;;23.90;43.70;;;;;;4992903;28;20406;-61
2021/10/14 16:22:48;;;;;;;4.10;1.17;;;24.00;43.90;;;;;;4992848;28;20727;-68
2021/10/14 16:25:14;;;;;;;6.97;1.55;;;24.00;43.30;;;;;;4992538;28;20481;-60
2021/10/14 16:27:41;;;;;;;5.47;1.30;;;24.00;43.80;;;;;;4985666;28;20456;-61
2021/10/14 16:30:10;;;;;;;4.25;1.33;;;24.00;43.80;;;;;;4981325;28;20455;-64
2021/10/14 16:32:42;;;;;;;3.80;1.30;;;23.90;43.80;;;;;;4981281;28;20399;-63
2021/10/14 16:35:08;;;;;;;5.22;1.20;;;23.90;44.00;;;;;;4978406;28;20390;-61
2021/10/14 16:37:35;;;;;;;3.83;1.20;;;23.90;43.90;;;;;;4990907;28;20510;-60
2021/10/14 16:40:01;;;;;;;5.30;1.45;;;23.80;43.50;;;;;;4991757;28;20383;-62
2021/10/14 16:42:27;;;;;;;3.70;1.10;;;23.80;44.60;;;;;;4974104;28;20432;-60
2021/10/14 16:44:52;;;;;;;6.23;1.20;;;23.70;43.70;;;;;;4967746;28;20515;-60
2021/10/14 16:47:19;;;;;;;5.57;1.33;;;23.70;44.20;;;;;;4971891;28;20396;-60